createdAt,value
2022-11-30T00:00:35.819Z,7.48
2022-11-30T00:01:35.787Z,7.42
2022-11-30T00:02:35.920Z,7.42
2022-11-30T00:03:35.768Z,7.48
2022-11-30T00:04:35.772Z,7.50
2022-11-30T00:05:35.741Z,7.51
2022-11-30T00:06:35.733Z,7.54
2022-11-30T00:07:35.766Z,7.50
2022-11-30T00:08:35.719Z,7.54
2022-11-30T00:09:35.736Z,7.50
2022-11-30T00:10:35.685Z,7.51
2022-11-30T00:11:35.680Z,7.54
2022-11-30T00:12:35.668Z,7.48
2022-11-30T00:13:35.657Z,7.48
2022-11-30T00:14:35.655Z,7.48
2022-11-30T00:15:35.640Z,7.48
2022-11-30T00:16:35.668Z,7.54
2022-11-30T00:17:35.623Z,7.48
2022-11-30T00:18:35.620Z,7.51
2022-11-30T00:19:35.594Z,7.51
2022-11-30T00:20:35.586Z,7.58
2022-11-30T00:21:35.564Z,7.57
2022-11-30T00:22:42.977Z,7.57
2022-11-30T00:23:35.559Z,7.57
2022-11-30T00:24:35.530Z,7.61
2022-11-30T00:25:35.546Z,7.61
2022-11-30T00:26:35.509Z,7.60
2022-11-30T00:27:35.490Z,7.66
2022-11-30T00:28:35.491Z,7.61
2022-11-30T00:29:35.474Z,7.61
2022-11-30T00:30:35.490Z,7.60
2022-11-30T00:31:35.451Z,7.61
2022-11-30T00:32:35.436Z,7.57
2022-11-30T00:33:35.450Z,7.58
2022-11-30T00:34:35.435Z,7.63
2022-11-30T00:35:35.402Z,7.63
2022-11-30T00:36:35.407Z,7.61
2022-11-30T00:37:35.399Z,7.54
2022-11-30T00:38:35.372Z,7.70
2022-11-30T00:39:35.856Z,7.67
2022-11-30T00:40:35.348Z,7.67
2022-11-30T00:41:35.346Z,7.60
2022-11-30T00:42:35.341Z,7.63
2022-11-30T00:43:35.314Z,7.67
2022-11-30T00:44:35.296Z,7.63
2022-11-30T00:45:35.282Z,7.67
2022-11-30T00:46:35.345Z,7.70
2022-11-30T00:47:35.282Z,7.73
2022-11-30T00:48:35.256Z,7.69
2022-11-30T00:49:35.257Z,7.69
2022-11-30T00:50:35.252Z,7.69
2022-11-30T00:51:35.220Z,7.73
2022-11-30T00:52:35.219Z,7.75
2022-11-30T00:53:35.194Z,7.57
2022-11-30T00:54:35.193Z,7.60
2022-11-30T00:55:35.182Z,7.66
2022-11-30T00:56:35.168Z,7.70
2022-11-30T00:57:35.167Z,7.60
2022-11-30T00:58:35.159Z,7.63
2022-11-30T00:59:35.129Z,7.75
2022-11-30T01:00:35.132Z,7.58
2022-11-30T01:01:35.157Z,7.58
2022-11-30T01:02:35.206Z,7.70
2022-11-30T01:03:35.084Z,7.66
2022-11-30T01:04:35.086Z,7.63
2022-11-30T01:05:35.059Z,7.56
2022-11-30T01:06:35.069Z,7.66
2022-11-30T01:07:35.150Z,7.60
2022-11-30T01:08:35.042Z,7.56
2022-11-30T01:09:35.014Z,7.56
2022-11-30T01:10:35.007Z,7.51
2022-11-30T01:11:34.998Z,7.61
2022-11-30T01:12:35.003Z,7.61
2022-11-30T01:13:34.970Z,7.69
2022-11-30T01:14:34.963Z,7.66
2022-11-30T01:15:35.003Z,7.67
2022-11-30T01:16:34.936Z,7.61
2022-11-30T01:17:34.942Z,7.60
2022-11-30T01:18:34.916Z,7.69
2022-11-30T01:19:34.904Z,7.69
2022-11-30T01:20:34.894Z,7.75
2022-11-30T01:21:34.879Z,7.67
2022-11-30T01:22:34.900Z,7.70
2022-11-30T01:23:34.875Z,7.66
2022-11-30T01:24:34.851Z,7.58
2022-11-30T01:25:34.845Z,7.60
2022-11-30T01:26:34.839Z,7.57
2022-11-30T01:27:34.822Z,7.51
2022-11-30T01:28:34.808Z,7.53
2022-11-30T01:29:34.796Z,7.61
2022-11-30T01:30:34.820Z,7.61
2022-11-30T01:31:34.766Z,7.61
2022-11-30T01:32:34.774Z,7.66
2022-11-30T01:33:34.753Z,7.60
2022-11-30T01:34:34.733Z,7.54
2022-11-30T01:35:34.719Z,7.56
2022-11-30T01:36:34.719Z,7.61
2022-11-30T01:37:34.699Z,7.56
2022-11-30T01:38:34.713Z,7.56
2022-11-30T01:39:34.691Z,7.58
2022-11-30T01:40:34.680Z,7.50
2022-11-30T01:41:34.653Z,7.51
2022-11-30T01:42:34.655Z,7.67
2022-11-30T01:43:34.651Z,7.51
2022-11-30T01:44:34.617Z,7.54
2022-11-30T01:45:34.607Z,7.48
2022-11-30T01:46:34.629Z,7.63
2022-11-30T01:47:34.610Z,7.58
2022-11-30T01:48:34.594Z,7.61
2022-11-30T01:49:34.572Z,7.66
2022-11-30T01:50:34.551Z,7.66
2022-11-30T01:51:34.540Z,7.69
2022-11-30T01:52:34.533Z,7.58
2022-11-30T01:53:34.521Z,7.69
2022-11-30T01:54:34.550Z,7.72
2022-11-30T01:55:34.494Z,7.76
2022-11-30T01:56:34.486Z,7.69
2022-11-30T01:57:34.479Z,7.72
2022-11-30T01:58:34.463Z,7.75
2022-11-30T01:59:34.477Z,7.69
2022-11-30T02:00:34.456Z,7.60
2022-11-30T02:01:34.485Z,7.63
2022-11-30T02:02:34.458Z,7.58
2022-11-30T02:03:34.409Z,7.70
2022-11-30T02:04:34.404Z,7.66
2022-11-30T02:05:34.383Z,7.60
2022-11-30T02:06:34.381Z,7.60
2022-11-30T02:07:34.471Z,7.66
2022-11-30T02:08:34.495Z,7.67
2022-11-30T02:09:34.345Z,7.73
2022-11-30T02:10:34.356Z,7.72
2022-11-30T02:11:34.327Z,7.73
2022-11-30T02:12:34.305Z,7.66
2022-11-30T02:13:34.290Z,7.66
2022-11-30T02:14:34.283Z,7.70
2022-11-30T02:15:34.309Z,7.58
2022-11-30T02:16:34.265Z,7.72
2022-11-30T02:17:34.261Z,7.72
2022-11-30T02:18:34.238Z,7.63
2022-11-30T02:19:34.227Z,7.69
2022-11-30T02:20:34.215Z,7.73
2022-11-30T02:21:34.225Z,7.67
2022-11-30T02:22:34.214Z,7.67
2022-11-30T02:23:39.506Z,7.69
2022-11-30T02:24:34.183Z,7.66
2022-11-30T02:25:34.155Z,7.66
2022-11-30T02:26:34.183Z,7.66
2022-11-30T02:27:34.134Z,7.76
2022-11-30T02:28:34.126Z,7.69
2022-11-30T02:29:34.118Z,7.72
2022-11-30T02:30:34.115Z,7.66
2022-11-30T02:31:34.100Z,7.72
2022-11-30T02:32:34.106Z,7.76
2022-11-30T02:33:34.066Z,7.70
2022-11-30T02:34:34.072Z,7.69
2022-11-30T02:35:34.042Z,7.70
2022-11-30T02:36:34.034Z,7.63
2022-11-30T02:37:34.043Z,7.60
2022-11-30T02:38:34.030Z,7.72
2022-11-30T02:39:33.998Z,7.73
2022-11-30T02:40:33.995Z,7.72
2022-11-30T02:41:37.854Z,7.67
2022-11-30T02:42:34.097Z,7.72
2022-11-30T02:43:33.966Z,7.72
2022-11-30T02:44:33.945Z,7.70
2022-11-30T02:45:33.928Z,7.69
2022-11-30T02:46:34.026Z,7.75
2022-11-30T02:47:33.912Z,7.75
2022-11-30T02:48:33.927Z,7.72
2022-11-30T02:49:33.894Z,7.67
2022-11-30T02:50:33.878Z,7.63
2022-11-30T02:51:33.872Z,7.72
2022-11-30T02:52:33.854Z,7.58
2022-11-30T02:53:33.839Z,7.70
2022-11-30T02:54:33.863Z,7.69
2022-11-30T02:55:33.818Z,7.72
2022-11-30T02:56:33.811Z,7.67
2022-11-30T02:57:33.795Z,7.75
2022-11-30T02:58:33.819Z,7.67
2022-11-30T02:59:33.786Z,7.66
2022-11-30T03:00:33.778Z,7.56
2022-11-30T03:01:33.791Z,7.72
2022-11-30T03:02:33.783Z,7.67
2022-11-30T03:03:33.727Z,7.61
2022-11-30T03:04:33.727Z,7.66
2022-11-30T03:05:33.708Z,7.63
2022-11-30T03:06:33.702Z,7.54
2022-11-30T03:07:33.756Z,7.70
2022-11-30T03:08:33.677Z,7.70
2022-11-30T03:09:33.673Z,7.60
2022-11-30T03:10:33.650Z,7.67
2022-11-30T03:11:33.640Z,7.63
2022-11-30T03:12:33.627Z,7.66
2022-11-30T03:13:33.645Z,7.58
2022-11-30T03:14:33.628Z,7.66
2022-11-30T03:15:33.651Z,7.60
2022-11-30T03:16:33.580Z,7.69
2022-11-30T03:17:33.579Z,7.76
2022-11-30T03:18:33.559Z,7.75
2022-11-30T03:19:33.552Z,7.69
2022-11-30T03:20:33.547Z,7.72
2022-11-30T03:21:33.535Z,7.72
2022-11-30T03:22:33.516Z,7.72
2022-11-30T03:23:33.515Z,7.63
2022-11-30T03:24:33.498Z,7.70
2022-11-30T03:25:33.485Z,7.69
2022-11-30T03:26:33.477Z,7.69
2022-11-30T03:27:33.460Z,7.70
2022-11-30T03:28:33.453Z,7.57
2022-11-30T03:29:33.441Z,7.54
2022-11-30T03:30:33.476Z,7.63
2022-11-30T03:31:33.459Z,7.54
2022-11-30T03:32:33.398Z,7.50
2022-11-30T03:33:33.388Z,7.60
2022-11-30T03:34:33.391Z,7.54
2022-11-30T03:35:33.385Z,7.67
2022-11-30T03:36:33.384Z,7.58
2022-11-30T03:37:33.348Z,7.56
2022-11-30T03:38:33.329Z,7.57
2022-11-30T03:39:33.325Z,7.56
2022-11-30T03:40:33.322Z,7.58
2022-11-30T03:41:33.304Z,7.66
2022-11-30T03:42:33.294Z,7.58
2022-11-30T03:43:33.278Z,7.67
2022-11-30T03:44:33.266Z,7.56
2022-11-30T03:45:33.266Z,7.67
2022-11-30T03:46:33.339Z,7.60
2022-11-30T03:47:33.246Z,7.53
2022-11-30T03:48:33.218Z,7.67
2022-11-30T03:49:33.212Z,7.72
2022-11-30T03:50:33.208Z,7.61
2022-11-30T03:51:33.189Z,7.60
2022-11-30T03:52:33.181Z,7.54
2022-11-30T03:53:33.164Z,7.57
2022-11-30T03:54:33.154Z,7.60
2022-11-30T03:55:33.146Z,7.56
2022-11-30T03:56:33.129Z,7.60
2022-11-30T03:57:33.123Z,7.58
2022-11-30T03:58:33.115Z,7.63
2022-11-30T03:59:33.106Z,7.63
2022-11-30T04:00:33.101Z,7.56
2022-11-30T04:01:33.125Z,7.60
2022-11-30T04:02:33.143Z,7.58
2022-11-30T04:03:33.053Z,7.67
2022-11-30T04:04:33.038Z,7.58
2022-11-30T04:05:33.045Z,7.66
2022-11-30T04:06:33.027Z,7.58
2022-11-30T04:07:33.018Z,7.67
2022-11-30T04:08:32.998Z,7.60
2022-11-30T04:09:32.989Z,7.66
2022-11-30T04:10:32.971Z,7.56
2022-11-30T04:11:32.964Z,7.58
2022-11-30T04:12:32.957Z,7.58
2022-11-30T04:13:32.943Z,7.54
2022-11-30T04:14:32.926Z,7.60
2022-11-30T04:15:32.918Z,7.58
2022-11-30T04:16:32.988Z,7.53
2022-11-30T04:17:32.922Z,7.66
2022-11-30T04:18:32.899Z,7.66
2022-11-30T04:19:32.872Z,7.66
2022-11-30T04:20:36.055Z,7.53
2022-11-30T04:21:33.913Z,7.67
2022-11-30T04:22:32.839Z,7.66
2022-11-30T04:23:32.837Z,7.58
2022-11-30T04:24:32.813Z,7.66
2022-11-30T04:25:32.805Z,7.54
2022-11-30T04:26:32.790Z,7.58
2022-11-30T04:27:32.799Z,7.57
2022-11-30T04:28:32.790Z,7.57
2022-11-30T04:29:32.757Z,7.54
2022-11-30T04:30:32.745Z,7.67
2022-11-30T04:31:32.809Z,7.66
2022-11-30T04:32:32.731Z,7.63
2022-11-30T04:33:32.835Z,7.63
2022-11-30T04:34:32.719Z,7.50
2022-11-30T04:35:32.689Z,7.57
2022-11-30T04:36:32.680Z,7.61
2022-11-30T04:37:32.668Z,7.61
2022-11-30T04:38:32.654Z,7.51
2022-11-30T04:39:32.667Z,7.50
2022-11-30T04:40:32.637Z,7.58
2022-11-30T04:41:32.622Z,7.48
2022-11-30T04:42:32.613Z,7.57
2022-11-30T04:43:32.604Z,7.53
2022-11-30T04:44:32.584Z,7.61
2022-11-30T04:45:35.595Z,7.61
2022-11-30T04:46:32.610Z,7.53
2022-11-30T04:47:32.573Z,7.54
2022-11-30T04:48:32.553Z,7.48
2022-11-30T04:49:32.543Z,7.63
2022-11-30T04:50:32.545Z,7.58
2022-11-30T04:51:32.509Z,7.53
2022-11-30T04:52:32.502Z,7.60
2022-11-30T04:53:32.504Z,7.63
2022-11-30T04:54:32.480Z,7.60
2022-11-30T04:55:32.475Z,7.61
2022-11-30T04:56:32.450Z,7.50
2022-11-30T04:57:32.444Z,7.58
2022-11-30T04:58:32.425Z,7.58
2022-11-30T04:59:32.427Z,7.51
2022-11-30T05:00:32.421Z,7.61
2022-11-30T05:01:32.426Z,7.56
2022-11-30T05:02:32.381Z,7.61
2022-11-30T05:03:32.372Z,7.54
2022-11-30T05:04:32.428Z,7.60
2022-11-30T05:05:32.359Z,7.57
2022-11-30T05:06:32.376Z,7.56
2022-11-30T05:07:32.396Z,7.63
2022-11-30T05:08:32.314Z,7.58
2022-11-30T05:09:32.308Z,7.54
2022-11-30T05:10:32.294Z,7.50
2022-11-30T05:11:32.292Z,7.60
2022-11-30T05:12:32.287Z,7.50
2022-11-30T05:13:32.260Z,7.58
2022-11-30T05:14:32.254Z,7.50
2022-11-30T05:15:32.239Z,7.53
2022-11-30T05:16:32.296Z,7.50
2022-11-30T05:17:32.216Z,7.51
2022-11-30T05:18:32.212Z,7.57
2022-11-30T05:19:32.191Z,7.48
2022-11-30T05:20:32.176Z,7.50
2022-11-30T05:21:32.171Z,7.48
2022-11-30T05:22:32.186Z,7.54
2022-11-30T05:23:32.148Z,7.60
2022-11-30T05:24:32.163Z,7.57
2022-11-30T05:25:32.126Z,7.60
2022-11-30T05:26:32.111Z,7.54
2022-11-30T05:27:32.113Z,7.51
2022-11-30T05:28:32.100Z,7.66
2022-11-30T05:29:32.082Z,7.61
2022-11-30T05:30:32.073Z,7.63
2022-11-30T05:31:32.116Z,7.57
2022-11-30T05:32:32.056Z,7.51
2022-11-30T05:33:32.034Z,7.48
2022-11-30T05:34:41.287Z,7.51
2022-11-30T05:35:33.009Z,7.58
2022-11-30T05:36:32.006Z,7.51
2022-11-30T05:37:32.002Z,7.53
2022-11-30T05:38:31.995Z,7.58
2022-11-30T05:39:31.971Z,7.58
2022-11-30T05:40:31.952Z,7.57
2022-11-30T05:41:31.942Z,7.58
2022-11-30T05:42:31.938Z,7.60
2022-11-30T05:43:31.930Z,7.56
2022-11-30T05:44:31.910Z,7.61
2022-11-30T05:45:31.904Z,7.67
2022-11-30T05:46:31.938Z,7.61
2022-11-30T05:47:31.878Z,7.69
2022-11-30T05:48:31.869Z,7.56
2022-11-30T05:49:31.862Z,7.51
2022-11-30T05:50:31.840Z,7.58
2022-11-30T05:51:31.830Z,7.63
2022-11-30T05:52:31.816Z,7.57
2022-11-30T05:53:31.816Z,7.48
2022-11-30T05:54:31.847Z,7.60
2022-11-30T05:55:31.799Z,7.48
2022-11-30T05:56:31.787Z,7.56
2022-11-30T05:57:31.764Z,7.56
2022-11-30T05:58:31.768Z,7.56
2022-11-30T05:59:31.740Z,7.60
2022-11-30T06:00:31.723Z,7.58
2022-11-30T06:01:31.721Z,7.48
2022-11-30T06:02:31.778Z,7.60
2022-11-30T06:03:31.728Z,7.60
2022-11-30T06:04:31.698Z,7.53
2022-11-30T06:05:31.672Z,7.50
2022-11-30T06:06:31.658Z,7.54
2022-11-30T06:07:31.821Z,7.47
2022-11-30T06:08:31.639Z,7.45
2022-11-30T06:09:31.638Z,7.51
2022-11-30T06:10:31.639Z,7.48
2022-11-30T06:11:31.603Z,7.45
2022-11-30T06:12:31.591Z,7.42
2022-11-30T06:13:31.583Z,7.39
2022-11-30T06:14:31.582Z,7.40
2022-11-30T06:15:31.579Z,7.38
2022-11-30T06:16:31.626Z,7.38
2022-11-30T06:17:31.539Z,7.38
2022-11-30T06:18:31.525Z,7.33
2022-11-30T06:19:31.527Z,7.36
2022-11-30T06:20:31.516Z,7.35
2022-11-30T06:21:31.499Z,7.40
2022-11-30T06:22:31.477Z,7.39
2022-11-30T06:23:38.549Z,7.35
2022-11-30T06:24:31.454Z,7.40
2022-11-30T06:25:31.449Z,7.32
2022-11-30T06:26:31.514Z,7.31
2022-11-30T06:27:31.429Z,7.38
2022-11-30T06:28:31.408Z,7.38
2022-11-30T06:29:31.404Z,7.32
2022-11-30T06:30:31.400Z,7.42
2022-11-30T06:31:31.485Z,7.32
2022-11-30T06:32:31.371Z,7.39
2022-11-30T06:33:31.362Z,7.32
2022-11-30T06:34:31.345Z,7.28
2022-11-30T06:35:31.340Z,7.28
2022-11-30T06:36:35.683Z,7.32
2022-11-30T06:37:32.326Z,7.36
2022-11-30T06:38:31.299Z,7.40
2022-11-30T06:40:04.127Z,7.38
2022-11-30T06:40:32.283Z,7.40
2022-11-30T06:41:31.270Z,7.33
2022-11-30T06:42:31.283Z,7.32
2022-11-30T06:43:31.257Z,7.39
2022-11-30T06:44:31.227Z,7.38
2022-11-30T06:45:31.258Z,7.33
2022-11-30T06:46:31.207Z,7.32
2022-11-30T06:47:31.228Z,7.32
2022-11-30T06:48:31.190Z,7.29
2022-11-30T06:49:31.193Z,7.35
2022-11-30T06:50:31.162Z,7.29
2022-11-30T06:51:31.157Z,7.36
2022-11-30T06:52:31.161Z,7.35
2022-11-30T06:53:31.138Z,7.35
2022-11-30T06:54:31.124Z,7.38
2022-11-30T06:55:31.112Z,7.32
2022-11-30T06:56:31.101Z,7.36
2022-11-30T06:57:31.105Z,7.29
2022-11-30T06:58:31.097Z,7.32
2022-11-30T06:59:31.072Z,7.33
2022-11-30T07:00:31.072Z,7.36
2022-11-30T07:01:31.078Z,7.29
2022-11-30T07:02:31.030Z,7.33
2022-11-30T07:03:31.021Z,7.33
2022-11-30T07:04:31.038Z,7.31
2022-11-30T07:05:30.995Z,7.40
2022-11-30T07:06:30.990Z,7.31
2022-11-30T07:07:31.022Z,7.38
2022-11-30T07:08:30.971Z,7.31
2022-11-30T07:09:30.966Z,7.39
2022-11-30T07:10:30.935Z,7.38
2022-11-30T07:11:30.939Z,7.35
2022-11-30T07:12:30.939Z,7.36
2022-11-30T07:13:30.911Z,7.36
2022-11-30T07:14:30.915Z,7.36
2022-11-30T07:15:30.881Z,7.36
2022-11-30T07:16:30.895Z,7.35
2022-11-30T07:17:30.863Z,7.38
2022-11-30T07:18:32.218Z,7.39
2022-11-30T07:19:30.841Z,7.35
2022-11-30T07:20:30.822Z,7.33
2022-11-30T07:21:30.812Z,7.38
2022-11-30T07:22:30.817Z,7.38
2022-11-30T07:23:30.792Z,7.31
2022-11-30T07:24:30.795Z,7.40
2022-11-30T07:25:30.787Z,7.33
2022-11-30T07:26:30.756Z,7.36
2022-11-30T07:27:30.754Z,7.33
2022-11-30T07:28:30.744Z,7.36
2022-11-30T07:29:30.728Z,7.38
2022-11-30T07:30:30.731Z,7.35
2022-11-30T07:31:30.857Z,7.31
2022-11-30T07:32:30.707Z,7.33
2022-11-30T07:33:30.679Z,7.33
2022-11-30T07:34:30.674Z,7.28
2022-11-30T07:35:30.658Z,7.35
2022-11-30T07:36:30.654Z,7.31
2022-11-30T07:37:30.655Z,7.28
2022-11-30T07:38:30.624Z,7.32
2022-11-30T07:39:30.617Z,7.35
2022-11-30T07:40:30.603Z,7.33
2022-11-30T07:41:30.594Z,7.43
2022-11-30T07:42:30.576Z,7.31
2022-11-30T07:43:30.575Z,7.32
2022-11-30T07:44:30.576Z,7.35
2022-11-30T07:45:30.602Z,7.29
2022-11-30T07:46:30.558Z,7.33
2022-11-30T07:47:30.518Z,7.32
2022-11-30T07:48:30.524Z,7.31
2022-11-30T07:49:30.519Z,7.39
2022-11-30T07:50:30.486Z,7.25
2022-11-30T07:51:30.479Z,7.31
2022-11-30T07:52:30.486Z,7.35
2022-11-30T07:53:30.447Z,7.38
2022-11-30T07:54:30.454Z,7.42
2022-11-30T07:55:30.444Z,7.33
2022-11-30T07:56:30.416Z,7.31
2022-11-30T07:57:30.429Z,7.36
2022-11-30T07:58:30.396Z,7.32
2022-11-30T07:59:30.392Z,7.32
2022-11-30T08:00:30.373Z,7.32
2022-11-30T08:01:30.580Z,7.31
2022-11-30T08:02:30.418Z,7.35
2022-11-30T08:03:36.459Z,7.36
2022-11-30T08:04:31.391Z,7.31
2022-11-30T08:05:30.322Z,7.35
2022-11-30T08:06:30.307Z,7.36
2022-11-30T08:07:30.337Z,7.32
2022-11-30T08:08:30.305Z,7.38
2022-11-30T08:09:30.287Z,7.36
2022-11-30T08:10:30.259Z,7.39
2022-11-30T08:11:30.253Z,7.32
2022-11-30T08:12:30.250Z,7.42
2022-11-30T08:13:30.219Z,7.38
2022-11-30T08:14:30.214Z,7.35
2022-11-30T08:15:32.888Z,7.42
2022-11-30T08:16:30.251Z,7.38
2022-11-30T08:17:30.183Z,7.35
2022-11-30T08:18:30.194Z,7.38
2022-11-30T08:19:30.176Z,7.36
2022-11-30T08:20:30.164Z,7.40
2022-11-30T08:21:30.131Z,7.39
2022-11-30T08:22:30.121Z,7.38
2022-11-30T08:23:30.121Z,7.36
2022-11-30T08:24:30.171Z,7.38
2022-11-30T08:25:30.102Z,7.42
2022-11-30T08:26:30.097Z,7.42
2022-11-30T08:27:30.065Z,7.36
2022-11-30T08:28:30.053Z,7.39
2022-11-30T08:29:30.050Z,7.40
2022-11-30T08:30:32.782Z,7.47
2022-11-30T08:31:30.083Z,7.40
2022-11-30T08:32:30.018Z,7.36
2022-11-30T08:33:30.970Z,7.43
2022-11-30T08:34:30.020Z,7.35
2022-11-30T08:35:29.978Z,7.45
2022-11-30T08:36:29.993Z,7.43
2022-11-30T08:37:29.959Z,7.42
2022-11-30T08:38:29.947Z,7.42
2022-11-30T08:39:29.935Z,7.36
2022-11-30T08:40:29.925Z,7.42
2022-11-30T08:41:29.909Z,7.47
2022-11-30T08:42:29.894Z,7.33
2022-11-30T08:43:29.881Z,7.35
2022-11-30T08:44:29.883Z,7.31
2022-11-30T08:45:29.881Z,7.28
2022-11-30T08:47:30.938Z,7.32
2022-11-30T08:48:29.848Z,7.36
2022-11-30T08:49:29.826Z,7.29
2022-11-30T08:50:29.856Z,7.40
2022-11-30T08:51:42.165Z,7.40
2022-11-30T08:52:30.795Z,7.32
2022-11-30T08:53:29.788Z,7.32
2022-11-30T08:54:29.765Z,7.35
2022-11-30T08:55:29.753Z,7.38
2022-11-30T08:56:29.749Z,7.32
2022-11-30T08:57:29.726Z,7.32
2022-11-30T08:58:29.716Z,7.32
2022-11-30T08:59:29.723Z,7.39
2022-11-30T09:00:29.705Z,7.31
2022-11-30T09:01:31.607Z,7.35
2022-11-30T09:02:29.745Z,7.32
2022-11-30T09:03:29.657Z,7.35
2022-11-30T09:04:29.645Z,7.39
2022-11-30T09:05:29.634Z,7.39
2022-11-30T09:06:29.656Z,7.31
2022-11-30T09:07:29.664Z,7.33
2022-11-30T09:08:29.605Z,7.33
2022-11-30T09:09:29.596Z,7.32
2022-11-30T09:10:29.589Z,7.38
2022-11-30T09:11:29.577Z,7.35
2022-11-30T09:12:29.558Z,7.25
2022-11-30T09:13:30.241Z,7.39
2022-11-30T09:14:29.530Z,7.31
2022-11-30T09:15:29.531Z,7.23
2022-11-30T09:16:29.518Z,7.31
2022-11-30T09:17:29.509Z,7.31
2022-11-30T09:18:29.497Z,7.38
2022-11-30T09:19:29.473Z,7.38
2022-11-30T09:20:29.463Z,7.35
2022-11-30T09:21:29.463Z,7.33
2022-11-30T09:22:29.472Z,7.35
2022-11-30T09:23:29.436Z,7.32
2022-11-30T09:24:29.416Z,7.36
2022-11-30T09:25:29.403Z,7.31
2022-11-30T09:26:29.393Z,7.31
2022-11-30T09:27:29.392Z,7.32
2022-11-30T09:28:29.395Z,7.32
2022-11-30T09:29:29.356Z,7.28
2022-11-30T09:30:29.390Z,7.39
2022-11-30T09:31:29.347Z,7.32
2022-11-30T09:32:29.330Z,7.32
2022-11-30T09:33:29.328Z,7.38
2022-11-30T09:34:29.304Z,7.38
2022-11-30T09:35:29.296Z,7.32
2022-11-30T09:36:29.326Z,7.42
2022-11-30T09:37:29.283Z,7.51
2022-11-30T09:38:29.285Z,7.50
2022-11-30T09:39:29.283Z,7.45
2022-11-30T09:40:33.991Z,7.48
2022-11-30T09:41:30.229Z,7.50
2022-11-30T09:42:29.218Z,7.56
2022-11-30T09:43:29.199Z,7.51
2022-11-30T09:44:29.430Z,7.50
2022-11-30T09:45:29.178Z,7.48
2022-11-30T09:46:29.284Z,7.42
2022-11-30T09:47:31.869Z,7.43
2022-11-30T09:48:29.148Z,7.39
2022-11-30T09:49:29.152Z,7.50
2022-11-30T09:50:29.143Z,7.45
2022-11-30T09:51:29.121Z,7.42
2022-11-30T09:52:29.112Z,7.42
2022-11-30T09:53:29.886Z,7.47
2022-11-30T09:54:29.144Z,7.45
2022-11-30T09:55:29.079Z,7.51
2022-11-30T09:56:29.064Z,7.50
2022-11-30T09:57:29.062Z,7.47
2022-11-30T09:58:29.030Z,7.47
2022-11-30T09:59:29.034Z,7.47
2022-11-30T10:00:29.017Z,7.47
2022-11-30T10:01:32.630Z,7.45
2022-11-30T10:02:29.146Z,7.48
2022-11-30T10:03:29.104Z,7.48
2022-11-30T10:04:28.971Z,7.45
2022-11-30T10:05:28.965Z,7.48
2022-11-30T10:06:28.939Z,7.54
2022-11-30T10:07:29.014Z,7.48
2022-11-30T10:08:28.920Z,7.51
2022-11-30T10:09:28.901Z,7.51
2022-11-30T10:10:33.339Z,7.54
2022-11-30T10:11:28.883Z,7.43
2022-11-30T10:12:28.873Z,7.56
2022-11-30T10:13:28.857Z,7.50
2022-11-30T10:14:28.853Z,7.50
2022-11-30T10:15:28.860Z,7.47
2022-11-30T10:16:28.917Z,7.45
2022-11-30T10:17:28.817Z,7.47
2022-11-30T10:18:28.809Z,7.47
2022-11-30T10:19:28.801Z,7.53
2022-11-30T10:20:28.779Z,7.45
2022-11-30T10:21:28.782Z,7.58
2022-11-30T10:22:28.755Z,7.60
2022-11-30T10:23:28.755Z,7.50
2022-11-30T10:24:28.737Z,7.50
2022-11-30T10:25:28.722Z,7.48
2022-11-30T10:26:28.733Z,7.63
2022-11-30T10:27:28.713Z,7.57
2022-11-30T10:29:29.685Z,7.56
2022-11-30T10:30:28.669Z,7.56
2022-11-30T10:31:28.700Z,7.57
2022-11-30T10:32:28.655Z,7.60
2022-11-30T10:33:31.460Z,7.53
2022-11-30T10:34:29.620Z,7.51
2022-11-30T10:35:28.607Z,7.58
2022-11-30T10:36:28.626Z,7.57
2022-11-30T10:37:28.597Z,7.57
2022-11-30T10:38:28.583Z,7.53
2022-11-30T10:39:28.575Z,7.58
2022-11-30T10:40:28.558Z,7.51
2022-11-30T10:41:28.555Z,7.58
2022-11-30T10:42:28.572Z,7.50
2022-11-30T10:43:28.521Z,7.56
2022-11-30T10:44:28.519Z,7.67
2022-11-30T10:45:28.502Z,7.61
2022-11-30T10:46:28.578Z,7.54
2022-11-30T10:47:28.482Z,7.58
2022-11-30T10:48:28.460Z,7.60
2022-11-30T10:49:28.452Z,7.60
2022-11-30T10:50:28.443Z,7.60
2022-11-30T10:51:28.439Z,7.53
2022-11-30T10:52:28.427Z,7.60
2022-11-30T10:53:28.410Z,7.53
2022-11-30T10:54:28.394Z,7.58
2022-11-30T10:55:28.395Z,7.70
2022-11-30T10:56:28.387Z,7.57
2022-11-30T10:57:28.362Z,7.57
2022-11-30T10:58:28.376Z,7.57
2022-11-30T10:59:28.334Z,7.54
2022-11-30T11:00:28.343Z,7.47
2022-11-30T11:01:28.369Z,7.58
2022-11-30T11:02:28.343Z,7.56
2022-11-30T11:03:28.298Z,7.60
2022-11-30T11:04:28.358Z,7.48
2022-11-30T11:05:28.275Z,7.48
2022-11-30T11:06:28.259Z,7.43
2022-11-30T11:07:28.362Z,7.48
2022-11-30T11:08:28.239Z,7.51
2022-11-30T11:09:28.237Z,7.45
2022-11-30T11:10:28.227Z,7.40
2022-11-30T11:11:28.203Z,7.40
2022-11-30T11:12:28.192Z,7.47
2022-11-30T11:13:28.179Z,7.47
2022-11-30T11:14:28.192Z,7.51
2022-11-30T11:15:28.182Z,7.47
2022-11-30T11:16:28.223Z,7.45
2022-11-30T11:17:28.137Z,7.50
2022-11-30T11:18:28.123Z,7.43
2022-11-30T11:19:28.112Z,7.51
2022-11-30T11:20:28.098Z,7.51
2022-11-30T11:21:28.087Z,7.61
2022-11-30T11:22:28.075Z,7.56
2022-11-30T11:23:28.064Z,7.56
2022-11-30T11:24:28.053Z,7.53
2022-11-30T11:25:28.055Z,7.57
2022-11-30T11:26:28.043Z,7.45
2022-11-30T11:27:28.018Z,7.50
2022-11-30T11:28:35.070Z,7.48
2022-11-30T11:29:27.988Z,7.51
2022-11-30T11:30:28.009Z,7.50
2022-11-30T11:31:28.018Z,7.54
2022-11-30T11:32:27.989Z,7.57
2022-11-30T11:33:27.952Z,7.56
2022-11-30T11:34:27.931Z,7.47
2022-11-30T11:35:27.934Z,7.51
2022-11-30T11:36:27.927Z,7.50
2022-11-30T11:37:27.914Z,7.66
2022-11-30T11:38:27.893Z,7.67
2022-11-30T11:39:27.877Z,7.54
2022-11-30T11:40:27.871Z,7.58
2022-11-30T11:41:27.871Z,7.48
2022-11-30T11:42:27.867Z,7.56
2022-11-30T11:43:27.847Z,7.66
2022-11-30T11:44:35.925Z,7.54
2022-11-30T11:45:27.823Z,7.50
2022-11-30T11:46:27.903Z,7.47
2022-11-30T11:47:27.795Z,7.54
2022-11-30T11:48:29.190Z,7.53
2022-11-30T11:49:27.786Z,7.51
2022-11-30T11:50:58.187Z,7.48
2022-11-30T11:51:28.750Z,7.50
2022-11-30T11:52:27.742Z,7.45
2022-11-30T11:53:27.831Z,7.43
2022-11-30T11:54:27.704Z,7.38
2022-11-30T11:55:27.716Z,7.39
2022-11-30T11:56:27.704Z,7.35
2022-11-30T11:57:27.697Z,7.32
2022-11-30T11:58:27.671Z,7.40
2022-11-30T11:59:32.325Z,7.38
2022-11-30T12:00:28.637Z,7.33
2022-11-30T12:01:42.931Z,7.39
2022-11-30T12:02:28.704Z,7.36
2022-11-30T12:03:27.621Z,7.39
2022-11-30T12:04:27.649Z,7.39
2022-11-30T12:05:27.580Z,7.50
2022-11-30T12:06:27.577Z,7.42
2022-11-30T12:07:27.632Z,7.43
2022-11-30T12:08:27.564Z,7.48
2022-11-30T12:09:27.535Z,7.48
2022-11-30T12:10:51.236Z,7.39
2022-11-30T12:11:28.514Z,7.35
2022-11-30T12:12:27.516Z,7.35
2022-11-30T12:13:27.531Z,7.40
2022-11-30T12:14:27.490Z,7.35
2022-11-30T12:15:27.480Z,7.35
2022-11-30T12:16:27.494Z,7.42
2022-11-30T12:17:27.445Z,7.33
2022-11-30T12:18:27.461Z,7.36
2022-11-30T12:19:27.423Z,7.40
2022-11-30T12:20:27.422Z,7.33
2022-11-30T12:21:27.402Z,7.45
2022-11-30T12:22:27.389Z,7.32
2022-11-30T12:23:27.400Z,7.33
2022-11-30T12:24:27.373Z,7.32
2022-11-30T12:25:27.356Z,7.33
2022-11-30T12:26:27.342Z,7.35
2022-11-30T12:27:27.347Z,7.32
2022-11-30T12:28:27.320Z,7.36
2022-11-30T12:29:27.319Z,7.51
2022-11-30T12:30:27.296Z,7.79
2022-11-30T12:31:27.350Z,8.00
2022-11-30T12:32:27.271Z,7.98
2022-11-30T12:33:27.294Z,7.87
2022-11-30T12:34:27.284Z,7.79
2022-11-30T12:35:27.248Z,7.80
2022-11-30T12:36:27.227Z,7.70
2022-11-30T12:37:27.217Z,7.60
2022-11-30T12:38:27.206Z,7.60
2022-11-30T12:39:27.205Z,7.57
2022-11-30T12:40:27.181Z,7.50
2022-11-30T12:41:27.194Z,7.45
2022-11-30T12:42:27.167Z,7.43
2022-11-30T12:43:27.158Z,7.35
2022-11-30T12:44:27.137Z,7.33
2022-11-30T12:45:27.125Z,7.38
2022-11-30T12:46:27.268Z,7.32
2022-11-30T12:47:27.104Z,7.31
2022-11-30T12:48:27.120Z,7.36
2022-11-30T12:49:27.083Z,7.35
2022-11-30T12:50:27.104Z,7.38
2022-11-30T12:51:29.989Z,7.36
2022-11-30T12:52:27.069Z,7.31
2022-11-30T12:53:27.063Z,7.39
2022-11-30T12:54:27.050Z,7.32
2022-11-30T12:55:27.013Z,7.31
2022-11-30T12:56:27.028Z,7.35
2022-11-30T12:57:26.990Z,7.29
2022-11-30T12:58:27.007Z,7.33
2022-11-30T12:59:26.987Z,7.32
2022-11-30T13:00:27.014Z,7.35
2022-11-30T13:01:26.950Z,7.39
2022-11-30T13:02:26.973Z,7.33
2022-11-30T13:03:26.921Z,7.33
2022-11-30T13:04:26.934Z,7.31
2022-11-30T13:05:26.899Z,7.32
2022-11-30T13:06:26.907Z,7.35
2022-11-30T13:07:26.911Z,7.23
2022-11-30T13:08:26.868Z,7.29
2022-11-30T13:09:26.877Z,7.29
2022-11-30T13:10:26.840Z,7.24
2022-11-30T13:11:26.829Z,7.23
2022-11-30T13:12:26.818Z,7.24
2022-11-30T13:13:26.825Z,7.29
2022-11-30T13:14:26.820Z,7.28
2022-11-30T13:15:26.795Z,7.24
2022-11-30T13:16:26.814Z,7.15
2022-11-30T13:17:26.767Z,7.24
2022-11-30T13:18:26.745Z,7.28
2022-11-30T13:19:26.766Z,7.14
2022-11-30T13:20:26.738Z,7.21